createdAt,value
2022-09-05T00:00:19.623Z,68.05
2022-09-05T00:03:14.974Z,82.22
2022-09-05T00:06:02.990Z,88.45
2022-09-05T00:08:43.812Z,81.95
2022-09-05T00:11:41.426Z,77.53
2022-09-05T00:15:14.278Z,74.35
2022-09-05T00:17:21.667Z,80.38
2022-09-05T00:24:18.945Z,82.93
2022-09-05T00:24:30.630Z,62.25
2022-09-05T00:25:57.153Z,77.68
2022-09-05T00:28:36.924Z,57.42
2022-09-05T00:31:55.307Z,50.95
2022-09-05T00:34:13.649Z,61.55
2022-09-05T00:36:46.899Z,54.33
2022-09-05T00:39:19.528Z,70.22
2022-09-05T00:41:50.542Z,70.53
2022-09-05T00:44:20.798Z,60.90
2022-09-05T00:46:56.951Z,58.65
2022-09-05T00:49:31.264Z,70.63
2022-09-05T00:52:07.641Z,83.07
2022-09-05T00:54:59.438Z,70.63
2022-09-05T00:57:37.687Z,88.93
2022-09-05T01:00:17.695Z,95.15
2022-09-05T01:03:21.135Z,85.95
2022-09-05T01:06:03.230Z,106.38
2022-09-05T01:09:08.071Z,95.32
2022-09-05T01:11:46.299Z,97.70
2022-09-05T01:14:49.082Z,93.90
2022-09-05T01:17:35.014Z,102.15
2022-09-05T01:20:19.443Z,107.35
2022-09-05T01:23:16.669Z,95.25
2022-09-05T01:26:05.190Z,108.55
2022-09-05T01:29:16.180Z,109.10
2022-09-05T01:31:38.756Z,103.93
2022-09-05T01:34:22.873Z,99.80
2022-09-05T01:37:08.568Z,97.30
2022-09-05T01:40:15.237Z,108.13
2022-09-05T01:42:55.685Z,100.55
2022-09-05T01:45:37.583Z,103.90
2022-09-05T01:48:15.319Z,101.22
2022-09-05T01:50:51.614Z,87.32
2022-09-05T01:53:34.324Z,69.65
2022-09-05T01:56:28.089Z,63.00
2022-09-05T01:59:07.570Z,67.97
2022-09-05T02:01:55.134Z,73.25
2022-09-05T02:04:52.552Z,62.67
2022-09-05T02:07:34.157Z,60.58
2022-09-05T02:10:37.480Z,64.60
2022-09-05T02:13:16.365Z,52.33
2022-09-05T02:15:59.208Z,50.38
2022-09-05T02:18:33.069Z,45.45
2022-09-05T02:21:03.335Z,42.88
2022-09-05T02:23:42.549Z,48.85
2022-09-05T02:26:19.413Z,46.55
2022-09-05T02:28:54.993Z,66.72
2022-09-05T02:31:31.006Z,60.58
2022-09-05T02:34:08.050Z,48.97
2022-09-05T02:36:44.159Z,48.88
2022-09-05T02:45:02.464Z,50.45
2022-09-05T02:45:17.101Z,64.35
2022-09-05T02:45:27.331Z,70.13
2022-09-05T02:48:15.759Z,73.43
2022-09-05T02:57:27.055Z,50.20
2022-09-05T02:57:36.862Z,76.55
2022-09-05T02:57:37.439Z,38.72
2022-09-05T03:00:13.990Z,95.97
2022-09-05T03:03:02.316Z,62.45
2022-09-05T03:05:35.865Z,47.58
2022-09-05T03:08:17.625Z,85.88
2022-09-05T03:11:23.822Z,85.25
2022-09-05T03:14:44.391Z,131.98
2022-09-05T03:17:47.768Z,111.43
2022-09-05T03:20:53.118Z,91.43
2022-09-05T03:24:06.265Z,92.28
2022-09-05T03:27:01.021Z,63.92
2022-09-05T03:30:04.351Z,92.72
2022-09-05T03:33:09.280Z,56.05
2022-09-05T03:36:13.268Z,67.95
2022-09-05T03:39:21.972Z,52.05
2022-09-05T03:42:15.002Z,54.63
2022-09-05T03:44:59.607Z,43.88
2022-09-05T03:47:58.409Z,51.33
2022-09-05T03:57:05.593Z,55.08
2022-09-05T03:57:28.163Z,40.72
2022-09-05T03:57:38.706Z,47.83
2022-09-05T04:00:09.367Z,38.70
2022-09-05T04:08:08.970Z,39.25
2022-09-05T04:08:17.689Z,38.00
2022-09-05T04:08:42.594Z,38.80
2022-09-05T04:11:17.206Z,44.33
2022-09-05T04:13:52.386Z,41.78
2022-09-05T04:16:25.733Z,48.25
2022-09-05T04:18:57.258Z,44.60
2022-09-05T04:21:28.953Z,40.95
2022-09-05T04:24:11.620Z,47.80
2022-09-05T04:26:51.731Z,35.85
2022-09-05T04:29:27.135Z,44.47
2022-09-05T04:32:17.602Z,46.45
2022-09-05T04:34:56.830Z,52.97
2022-09-05T04:37:55.118Z,53.45
2022-09-05T04:40:51.844Z,49.25
2022-09-05T04:43:29.080Z,54.60
2022-09-05T04:46:07.816Z,52.78
2022-09-05T04:48:39.088Z,46.90
2022-09-05T04:51:11.733Z,54.42
2022-09-05T04:54:05.025Z,87.45
2022-09-05T04:56:38.748Z,128.73
2022-09-05T05:02:16.429Z,123.55
2022-09-05T05:06:00.223Z,118.55
2022-09-05T05:06:10.850Z,68.72
2022-09-05T05:08:00.410Z,75.72
2022-09-05T05:14:53.810Z,123.00
2022-09-05T05:17:58.850Z,102.68
2022-09-05T05:18:16.110Z,41.63
2022-09-05T05:19:21.676Z,43.58
2022-09-05T05:21:52.923Z,50.55
2022-09-05T05:24:24.729Z,69.18
2022-09-05T05:26:58.865Z,27.25
2022-09-05T05:29:38.464Z,26.80
2022-09-05T05:32:07.977Z,22.50
2022-09-05T05:34:43.843Z,18.38
2022-09-05T05:37:19.403Z,18.85
2022-09-05T05:39:51.795Z,18.73
2022-09-05T05:42:24.033Z,19.15
2022-09-05T05:44:54.761Z,22.20
2022-09-05T05:47:31.488Z,19.85
2022-09-05T05:50:05.480Z,20.90
2022-09-05T05:52:53.488Z,17.15
2022-09-05T05:55:52.053Z,11.07
2022-09-05T05:58:45.157Z,12.57
2022-09-05T06:01:37.682Z,54.30
2022-09-05T06:04:45.186Z,57.15
2022-09-05T06:07:23.272Z,55.35
2022-09-05T06:14:48.389Z,45.17
2022-09-05T06:15:04.903Z,47.58
2022-09-05T06:17:02.110Z,50.78
2022-09-05T06:21:44.138Z,47.35
2022-09-05T06:23:39.262Z,38.17
2022-09-05T06:26:40.914Z,49.05
2022-09-05T06:29:18.905Z,43.63
2022-09-05T06:32:04.126Z,32.80
2022-09-05T06:35:00.008Z,22.73
2022-09-05T06:37:39.600Z,19.42
2022-09-05T06:40:17.366Z,17.55
2022-09-05T06:43:05.980Z,17.02
2022-09-05T06:45:58.534Z,18.55
2022-09-05T06:48:44.354Z,15.93
2022-09-05T06:52:28.738Z,18.75
2022-09-05T06:55:35.431Z,13.13
2022-09-05T06:58:50.517Z,11.68
2022-09-05T07:01:32.650Z,16.27
2022-09-05T07:05:23.767Z,11.10
2022-09-05T07:07:23.827Z,16.45
2022-09-05T07:10:00.336Z,15.40
2022-09-05T07:12:31.212Z,16.45
2022-09-05T07:15:09.479Z,11.27
2022-09-05T07:18:09.098Z,9.23
2022-09-05T07:21:17.080Z,12.48
2022-09-05T07:24:09.233Z,10.80
2022-09-05T07:26:52.072Z,11.25
2022-09-05T07:29:25.205Z,10.32
2022-09-05T07:31:57.265Z,12.68
2022-09-05T07:34:30.300Z,14.50
2022-09-05T07:37:15.346Z,11.15
2022-09-05T07:39:47.113Z,12.23
2022-09-05T07:42:20.796Z,13.38
2022-09-05T07:44:56.309Z,14.45
2022-09-05T07:47:28.680Z,13.18
2022-09-05T07:50:42.883Z,23.65
2022-09-05T07:56:56.722Z,15.23
2022-09-05T07:57:03.720Z,16.40
2022-09-05T07:58:41.663Z,24.38
2022-09-05T08:01:12.600Z,18.42
2022-09-05T08:03:43.060Z,19.48
2022-09-05T08:06:25.991Z,18.67
2022-09-05T08:09:39.959Z,18.75
2022-09-05T08:12:09.907Z,19.15
2022-09-05T08:14:46.001Z,18.83
2022-09-05T08:17:18.275Z,19.20
2022-09-05T08:20:12.765Z,20.05
2022-09-05T08:22:52.519Z,19.05
2022-09-05T08:25:27.636Z,16.92
2022-09-05T08:28:13.608Z,19.40
2022-09-05T08:30:45.868Z,17.10
2022-09-05T08:33:19.729Z,13.57
2022-09-05T08:35:53.048Z,14.30
2022-09-05T08:38:34.502Z,14.65
2022-09-05T08:41:17.328Z,13.52
2022-09-05T08:46:39.337Z,11.32
2022-09-05T08:46:50.975Z,9.05
2022-09-05T08:49:54.857Z,9.50
2022-09-05T08:52:31.432Z,8.95
2022-09-05T08:55:09.849Z,9.20
2022-09-05T08:58:05.422Z,10.15
2022-09-05T09:00:36.825Z,10.32
2022-09-05T09:03:15.733Z,10.57
2022-09-05T09:06:16.334Z,9.45
2022-09-05T09:09:01.050Z,8.68
2022-09-05T09:11:37.098Z,7.05
2022-09-05T09:14:50.151Z,8.80
2022-09-05T09:17:29.402Z,7.65
2022-09-05T09:20:14.405Z,6.55
2022-09-05T09:22:45.944Z,3.88
2022-09-05T09:25:17.835Z,5.30
2022-09-05T09:28:50.235Z,6.13
2022-09-05T09:31:10.881Z,5.65
2022-09-05T09:33:44.280Z,7.70
2022-09-05T09:36:30.240Z,5.22
2022-09-05T09:39:37.467Z,4.82
2022-09-05T09:42:32.224Z,6.45
2022-09-05T09:45:28.276Z,6.22
2022-09-05T09:48:30.499Z,6.25
2022-09-05T09:51:12.916Z,5.95
2022-09-05T09:53:57.829Z,5.65
2022-09-05T09:56:52.307Z,7.03
2022-09-05T09:59:54.517Z,6.32
2022-09-05T10:06:54.131Z,7.75
2022-09-05T10:10:45.728Z,4.97
2022-09-05T10:10:49.592Z,6.70
2022-09-05T10:12:29.913Z,7.97
2022-09-05T10:15:10.099Z,5.00
2022-09-05T10:18:36.571Z,6.80
2022-09-05T10:21:17.864Z,7.75
2022-09-05T10:24:19.722Z,4.30
2022-09-05T10:27:14.608Z,5.28
2022-09-05T10:29:50.071Z,5.82
2022-09-05T10:35:08.728Z,7.03
2022-09-05T10:35:27.355Z,6.15
2022-09-05T10:38:10.184Z,3.60
2022-09-05T10:41:21.568Z,3.92
2022-09-05T10:43:31.023Z,4.38
2022-09-05T10:46:08.600Z,4.18
2022-09-05T10:48:48.922Z,4.57
2022-09-05T10:51:29.722Z,4.50
2022-09-05T10:54:14.422Z,3.75
2022-09-05T10:56:47.711Z,3.60
2022-09-05T10:59:59.835Z,4.80
2022-09-05T11:02:27.745Z,3.97
2022-09-05T11:05:09.205Z,4.38
2022-09-05T11:07:42.683Z,3.88
2022-09-05T11:10:17.244Z,3.95
2022-09-05T11:12:58.191Z,4.13
2022-09-05T11:15:33.486Z,3.80
2022-09-05T11:18:04.806Z,4.50
2022-09-05T11:20:45.907Z,4.00
2022-09-05T11:23:21.002Z,3.83
2022-09-05T11:25:57.172Z,3.72
2022-09-05T11:28:33.579Z,3.88
2022-09-05T11:31:10.366Z,4.13
2022-09-05T11:39:49.192Z,3.78
2022-09-05T11:40:08.821Z,3.45
2022-09-05T11:40:39.161Z,4.00
2022-09-05T11:43:40.171Z,3.97
2022-09-05T11:46:30.043Z,3.95
2022-09-05T11:49:20.672Z,4.28
2022-09-05T11:52:23.838Z,4.00
2022-09-05T11:55:21.049Z,3.85
2022-09-05T11:58:44.241Z,3.95
2022-09-05T12:01:41.659Z,3.70
2022-09-05T12:03:59.353Z,3.42
2022-09-05T12:06:49.554Z,3.53
2022-09-05T12:09:31.200Z,3.22
2022-09-05T12:12:27.068Z,3.00
2022-09-05T12:15:24.468Z,2.70
2022-09-05T12:18:04.720Z,2.60
2022-09-05T12:20:57.150Z,3.22
2022-09-05T12:23:57.505Z,2.70
2022-09-05T12:27:44.346Z,2.58
2022-09-05T12:29:33.554Z,2.55
2022-09-05T12:33:50.761Z,2.30
2022-09-05T12:36:06.440Z,3.08
2022-09-05T12:41:42.465Z,2.60
2022-09-05T12:41:44.327Z,2.50
2022-09-05T12:44:38.903Z,3.03
2022-09-05T12:46:33.945Z,2.70
2022-09-05T12:49:08.234Z,2.17
2022-09-05T12:51:46.869Z,2.70
2022-09-05T12:54:33.294Z,2.67
2022-09-05T12:59:43.386Z,2.17
2022-09-05T13:03:05.220Z,2.67
2022-09-05T13:03:06.075Z,2.85
2022-09-05T13:05:52.557Z,2.40
2022-09-05T13:08:22.255Z,2.42
2022-09-05T13:14:47.088Z,2.53
2022-09-05T13:14:56.090Z,2.80
2022-09-05T13:16:41.257Z,2.28
2022-09-05T13:19:26.125Z,2.58
2022-09-05T13:21:57.319Z,2.90
2022-09-05T13:24:30.604Z,2.90
2022-09-05T13:27:05.601Z,2.60
2022-09-05T13:30:05.072Z,2.40
2022-09-05T13:38:08.165Z,2.10
2022-09-05T13:38:30.590Z,2.40
2022-09-05T13:38:47.609Z,2.47
2022-09-05T13:41:27.807Z,2.30
2022-09-05T13:44:00.480Z,2.70
2022-09-05T13:46:58.301Z,2.10
2022-09-05T13:49:32.228Z,2.28
2022-09-05T13:52:16.670Z,2.40
2022-09-05T13:54:51.265Z,2.83
2022-09-05T13:57:34.498Z,2.67
2022-09-05T14:00:28.895Z,2.58
2022-09-05T14:03:38.888Z,2.60
2022-09-05T14:06:47.539Z,2.88
2022-09-05T14:09:39.715Z,3.00
2022-09-05T14:12:16.540Z,2.33
2022-09-05T14:17:58.318Z,2.65
2022-09-05T14:20:49.383Z,2.60
2022-09-05T14:23:19.967Z,2.72
2022-09-05T14:25:53.946Z,2.40
2022-09-05T14:28:27.146Z,2.70
2022-09-05T14:33:25.268Z,2.63
2022-09-05T14:37:51.223Z,3.08
2022-09-05T14:37:58.395Z,2.85
2022-09-05T14:40:29.515Z,2.50
2022-09-05T14:43:24.520Z,2.95
2022-09-05T14:46:33.979Z,2.40
2022-09-05T14:49:28.816Z,2.90
2022-09-05T14:51:58.368Z,2.60
2022-09-05T15:00:34.502Z,2.53
2022-09-05T15:02:48.046Z,3.05
2022-09-05T15:03:05.347Z,2.65
2022-09-05T15:05:41.605Z,3.00
2022-09-05T15:08:30.548Z,2.95
2022-09-05T15:11:47.296Z,2.60
2022-09-05T15:13:57.278Z,2.85
2022-09-05T15:16:26.695Z,2.92
2022-09-05T15:18:56.208Z,2.60
2022-09-05T15:21:34.335Z,2.40
2022-09-05T15:24:14.654Z,2.60
2022-09-05T15:26:52.651Z,2.67
2022-09-05T15:29:23.212Z,2.35
2022-09-05T15:32:03.896Z,2.50
2022-09-05T15:34:38.761Z,3.20
2022-09-05T15:37:23.488Z,3.15
2022-09-05T15:40:02.347Z,3.08
2022-09-05T15:42:32.661Z,2.88
2022-09-05T15:45:10.552Z,2.85
2022-09-05T15:47:45.075Z,3.10
2022-09-05T15:50:22.004Z,2.90
2022-09-05T15:52:55.737Z,2.55
2022-09-05T15:55:25.088Z,3.10
2022-09-05T15:57:55.995Z,2.90
2022-09-05T16:00:42.349Z,3.05
2022-09-05T16:04:49.883Z,3.15
2022-09-05T16:10:50.219Z,3.00
2022-09-05T16:10:50.281Z,3.10
2022-09-05T16:12:14.081Z,3.05
2022-09-05T16:14:48.612Z,3.03
2022-09-05T16:23:15.488Z,3.60
2022-09-05T16:23:34.735Z,3.40
2022-09-05T16:23:41.755Z,3.92
2022-09-05T16:26:14.166Z,3.97
2022-09-05T16:28:49.887Z,3.70
2022-09-05T16:31:22.376Z,3.38
2022-09-05T16:33:50.432Z,3.67
2022-09-05T16:36:27.113Z,4.03
2022-09-05T16:39:00.940Z,3.78
2022-09-05T16:41:42.861Z,4.10
2022-09-05T16:44:14.697Z,3.70
2022-09-05T16:46:48.681Z,4.10
2022-09-05T16:49:41.781Z,3.85
2022-09-05T16:52:17.174Z,4.40
2022-09-05T16:54:51.600Z,4.13
2022-09-05T16:57:24.662Z,4.15
2022-09-05T16:59:52.388Z,3.90
2022-09-05T17:02:28.446Z,3.80
2022-09-05T17:05:11.145Z,3.17
2022-09-05T17:08:02.867Z,3.20
2022-09-05T17:10:34.723Z,3.13
2022-09-05T17:13:04.659Z,3.10
2022-09-05T17:15:36.873Z,3.33
2022-09-05T17:18:20.193Z,3.22
2022-09-05T17:20:54.751Z,3.65
2022-09-05T17:27:59.756Z,3.90
2022-09-05T17:29:30.408Z,3.97
2022-09-05T17:32:47.717Z,3.40
2022-09-05T17:35:27.677Z,5.60
2022-09-05T17:38:25.379Z,6.75
2022-09-05T17:41:25.079Z,7.00
2022-09-05T17:44:01.671Z,9.00
2022-09-05T17:46:32.520Z,9.38
2022-09-05T17:49:18.469Z,9.40
2022-09-05T17:52:28.104Z,9.10
2022-09-05T17:54:56.855Z,8.23
2022-09-05T17:57:38.589Z,9.13
2022-09-05T18:00:48.591Z,10.45
2022-09-05T18:04:16.149Z,8.63
2022-09-05T18:06:59.450Z,7.25
2022-09-05T18:10:05.927Z,11.15
2022-09-05T18:13:12.527Z,17.27
2022-09-05T18:16:11.709Z,35.50
2022-09-05T18:21:48.080Z,68.60
2022-09-05T18:24:24.237Z,49.25
2022-09-05T18:26:56.121Z,30.42
2022-09-05T18:29:58.009Z,34.42
2022-09-05T18:32:42.132Z,18.23
2022-09-05T18:35:26.669Z,24.20
2022-09-05T18:38:22.988Z,19.52
2022-09-05T18:41:13.872Z,18.67
2022-09-05T18:44:12.437Z,33.75
2022-09-05T18:46:45.124Z,66.85
2022-09-05T18:50:23.705Z,77.13
2022-09-05T18:52:14.083Z,91.68
2022-09-05T18:54:44.993Z,102.53
2022-09-05T18:57:28.559Z,110.28
2022-09-05T18:59:59.751Z,86.40
2022-09-05T19:02:58.545Z,91.70
2022-09-05T19:05:45.770Z,81.93
2022-09-05T19:08:31.848Z,81.82
2022-09-05T19:11:02.060Z,70.55
2022-09-05T19:14:12.688Z,91.25
2022-09-05T19:16:43.665Z,78.20
2022-09-05T19:19:19.335Z,72.97
2022-09-05T19:21:56.227Z,78.78
2022-09-05T19:24:45.563Z,59.30
2022-09-05T19:30:58.740Z,45.28
2022-09-05T19:36:53.900Z,37.35
2022-09-05T19:37:06.614Z,46.40
2022-09-05T19:37:07.576Z,73.35
2022-09-05T19:39:40.536Z,89.60
2022-09-05T19:47:30.377Z,58.00
2022-09-05T19:47:36.822Z,57.45
2022-09-05T19:47:41.664Z,18.17
2022-09-05T19:50:09.606Z,63.53
2022-09-05T19:52:40.085Z,69.93
2022-09-05T19:55:20.396Z,49.55
2022-09-05T19:57:54.221Z,92.45
2022-09-05T20:00:40.066Z,63.45
2022-09-05T20:03:07.809Z,94.50
2022-09-05T20:05:40.347Z,63.28
2022-09-05T20:08:13.231Z,71.97
2022-09-05T20:10:41.607Z,54.35
2022-09-05T20:13:26.748Z,80.40
2022-09-05T20:15:54.537Z,68.53
2022-09-05T20:18:24.806Z,76.68
2022-09-05T20:20:55.588Z,63.47
2022-09-05T20:23:25.495Z,65.07
2022-09-05T20:25:55.473Z,59.58
2022-09-05T20:28:25.659Z,32.47
2022-09-05T20:30:55.590Z,27.67
2022-09-05T20:33:28.487Z,23.63
2022-09-05T20:40:16.622Z,19.35
2022-09-05T20:43:16.801Z,21.27
2022-09-05T20:43:36.698Z,32.70
2022-09-05T20:44:39.670Z,47.45
2022-09-05T20:52:08.828Z,26.85
2022-09-05T20:54:12.896Z,30.55
2022-09-05T20:54:26.878Z,25.23
2022-09-05T20:55:42.137Z,16.08
2022-09-05T20:58:12.617Z,27.40
2022-09-05T21:01:17.448Z,17.27
2022-09-05T21:03:40.768Z,29.17
2022-09-05T21:06:21.935Z,26.70
2022-09-05T21:08:50.507Z,28.05
2022-09-05T21:11:29.788Z,24.52
2022-09-05T21:14:00.489Z,18.58
2022-09-05T21:16:29.892Z,17.45
2022-09-05T21:18:57.696Z,23.25
2022-09-05T21:21:29.757Z,26.50
2022-09-05T21:24:17.432Z,20.27
2022-09-05T21:26:49.062Z,18.83
2022-09-05T21:29:23.398Z,28.00
2022-09-05T21:31:59.368Z,22.52
2022-09-05T21:34:32.164Z,16.95
2022-09-05T21:37:07.605Z,42.50
2022-09-05T21:39:40.177Z,26.08
2022-09-05T21:42:54.746Z,40.85
2022-09-05T21:47:49.163Z,18.33
2022-09-05T21:47:53.796Z,26.70
2022-09-05T21:50:23.985Z,27.15
2022-09-05T21:53:43.230Z,30.00
2022-09-05T21:59:21.249Z,21.20
2022-09-05T21:59:26.230Z,21.02
2022-09-05T22:01:51.555Z,20.70
2022-09-05T22:04:17.430Z,44.05
2022-09-05T22:06:48.654Z,50.25
2022-09-05T22:09:17.186Z,50.17
2022-09-05T22:11:50.082Z,56.75
2022-09-05T22:14:20.396Z,29.83
2022-09-05T22:16:50.344Z,19.50
2022-09-05T22:19:22.778Z,32.00
2022-09-05T22:21:52.741Z,49.17
2022-09-05T22:24:20.842Z,44.20
2022-09-05T22:27:12.538Z,35.65
2022-09-05T22:29:42.962Z,41.97
2022-09-05T22:32:14.987Z,43.25
2022-09-05T22:34:42.615Z,52.47
2022-09-05T22:37:10.111Z,47.47
2022-09-05T22:39:38.245Z,49.13
2022-09-05T22:42:10.687Z,37.92
2022-09-05T22:44:39.692Z,52.58
2022-09-05T22:47:09.546Z,51.35
2022-09-05T22:49:37.513Z,43.63
2022-09-05T22:52:06.211Z,53.85
2022-09-05T22:54:34.028Z,59.75
2022-09-05T22:57:01.614Z,52.53
2022-09-05T22:59:29.257Z,39.40
2022-09-05T23:01:56.828Z,50.70
2022-09-05T23:04:26.147Z,47.28
2022-09-05T23:06:53.707Z,44.05
2022-09-05T23:09:21.281Z,48.40
2022-09-05T23:11:48.896Z,52.00
2022-09-05T23:14:16.379Z,44.05
2022-09-05T23:16:43.917Z,45.40
2022-09-05T23:19:11.437Z,46.45
2022-09-05T23:21:40.264Z,43.03
2022-09-05T23:24:07.845Z,43.10
2022-09-05T23:26:35.351Z,55.45
2022-09-05T23:29:02.827Z,39.80
2022-09-05T23:31:30.343Z,51.53
2022-09-05T23:33:58.191Z,40.08
2022-09-05T23:36:25.759Z,49.88
2022-09-05T23:38:54.623Z,44.35
2022-09-05T23:41:29.981Z,44.40
2022-09-05T23:43:57.513Z,34.20
2022-09-05T23:46:25.100Z,53.70
2022-09-05T23:48:52.587Z,57.00
2022-09-05T23:51:20.094Z,45.28
2022-09-05T23:53:47.548Z,42.10
2022-09-05T23:56:16.504Z,45.30
2022-09-05T23:58:43.968Z,32.90
